PAPH Airport Informations

Runway Information
Runway 05 Length 5000 ft width 100 ft
Elevation 90 ft Threshold ft Heading 70
Runway 23 Length 5000 ft Width 100 ft
Elevation 95 ft Threshold ft Heading 250
Runway 13 Length 4000 ft width 100 ft
Elevation 76 ft Threshold ft Heading 147
Runway 31 Length 4000 ft Width 100 ft
Elevation 83 ft Threshold ft Heading 327
Airport Frequencies
Type AWOS Name AWOS 3 Frequency 135.4 MHZ
Type CNTR Name ANCHORAGE Frequency 132.9 MHZ
Type CTAF Name CTAF Frequency 122.8 MHZ
Type FSS Name KENAI RDO Frequency 122 MHZ
Airport Navaids
Airport Weather Information & NOTAM
ADDS - METARS form results

(1933 UTC 16 August 2022)
Data provider http://aviationweather.gov/metar/data/
 
METAR text: PAPH 161923Z AUTO 30010KT 10SM -RA SCT012 BKN041 OVC055 09/07 A2974 RMK AO2 RAB04 P0000
Conditions at: PAPH (PORT HEIDEN , AK, US) observed 1923 UTC 16 August 2022
Temperature: 9.0°C (48°F)
Dewpoint: 7.0°C (45°F) [RH = 87%]
Pressure (altimeter): 29.74 inches Hg (1007.2 mb)
Winds: from the WNW (300 degrees) at 12 MPH (10 knots; 5.1 m/s)
Visibility: 10 or more miles (16+ km)
Ceiling: 4100 feet AGL
Clouds: scattered clouds at 1200 feet AGL
broken clouds at 4100 feet AGL
overcast cloud deck at 5500 feet AGL
Weather: -RA  (light rain)

METAR text: PAPH 161856Z AUTO 28010KT 10SM BKN012 BKN020 OVC060 10/08 A2975 RMK AO2 RAE07B35E46 SLP074 P0000 T01000078
Conditions at: PAPH (PORT HEIDEN , AK, US) observed 1856 UTC 16 August 2022
Temperature: 10.0°C (50°F)
Dewpoint: 7.8°C (46°F) [RH = 86%]
Pressure (altimeter): 29.75 inches Hg (1007.5 mb)
[Sea-level pressure: 1007.4 mb]
Winds: from the W (280 degrees) at 12 MPH (10 knots; 5.1 m/s)
Visibility: 10 or more miles (16+ km)
Ceiling: 1200 feet AGL
Clouds: broken clouds at 1200 feet AGL
broken clouds at 2000 feet AGL
overcast cloud deck at 6000 feet AGL
Weather: automated observation with no human augmentation;
there may or may not be significant weather present at this time